Aviation Digital Data Service (ADDS)

Output produced by METARs form (1714 UTC 21 September 2019)
found at http://aviationweather.gov/metar/data/
 
KNEW 211120Z 2112/2212 09007KT P6SM SCT030 SCT110 BKN250 
     FM211400 09011G21KT P6SM VCSH SCT030 SCT060 BKN250 
     FM211700 10013G22KT P6SM VCTS SCT030CB BKN080 
     FM220000 10011G20KT P6SM FEW030 SCT070 
     FM220300 13009KT P6SM FEW025 SCT100